createdAt,value
2019-06-20T00:00:45.045Z,18.00
2019-06-20T00:03:14.430Z,18.00
2019-06-20T00:05:43.218Z,18.00
2019-06-20T00:08:12.622Z,18.00
2019-06-20T00:10:41.880Z,18.00
2019-06-20T00:13:10.825Z,17.90
2019-06-20T00:15:40.056Z,17.90
2019-06-20T00:18:09.072Z,17.90
2019-06-20T00:20:37.851Z,17.90
2019-06-20T00:23:06.874Z,17.90
2019-06-20T00:25:35.769Z,17.90
2019-06-20T00:28:04.703Z,17.90
2019-06-20T00:30:33.572Z,17.90
2019-06-20T00:33:02.669Z,18.00
2019-06-20T00:35:31.529Z,17.90
2019-06-20T00:38:00.435Z,17.90
2019-06-20T00:40:29.318Z,17.90
2019-06-20T00:42:58.209Z,17.90
2019-06-20T00:45:27.706Z,17.90
2019-06-20T00:47:56.506Z,17.90
2019-06-20T00:50:25.316Z,17.90
2019-06-20T00:52:54.161Z,17.90
2019-06-20T00:55:23.141Z,17.90
2019-06-20T00:57:52.254Z,17.80
2019-06-20T01:00:21.392Z,17.80
2019-06-20T01:02:50.596Z,17.80
2019-06-20T01:05:19.569Z,17.80
2019-06-20T01:07:48.343Z,17.90
2019-06-20T01:10:18.263Z,17.80
2019-06-20T01:12:47.342Z,17.90
2019-06-20T01:15:16.841Z,17.90
2019-06-20T01:17:45.964Z,17.90
2019-06-20T01:20:15.288Z,18.00
2019-06-20T01:22:44.242Z,17.90
2019-06-20T01:25:13.880Z,18.00
2019-06-20T01:27:42.849Z,17.90
2019-06-20T01:30:12.397Z,18.00
2019-06-20T01:32:41.362Z,17.90
2019-06-20T01:35:11.933Z,17.90
2019-06-20T01:37:40.719Z,17.90
2019-06-20T01:40:10.091Z,17.90
2019-06-20T01:42:38.970Z,17.90
2019-06-20T01:45:08.317Z,17.90
2019-06-20T01:47:37.269Z,17.90
2019-06-20T01:50:07.081Z,17.90
2019-06-20T01:52:36.183Z,17.90
2019-06-20T01:55:06.217Z,17.90
2019-06-20T01:57:35.014Z,17.80
2019-06-20T02:00:04.574Z,17.80
2019-06-20T02:02:33.401Z,17.80
2019-06-20T02:05:02.571Z,17.90
2019-06-20T02:07:31.436Z,17.90
2019-06-20T02:10:00.242Z,17.80
2019-06-20T02:12:29.547Z,17.80
2019-06-20T02:14:58.349Z,17.80
2019-06-20T02:17:27.141Z,17.80
2019-06-20T02:19:55.946Z,17.80
2019-06-20T02:22:24.808Z,17.80
2019-06-20T02:24:53.605Z,17.80
2019-06-20T02:27:22.990Z,17.80
2019-06-20T02:29:52.034Z,17.80
2019-06-20T02:32:20.901Z,17.80
2019-06-20T02:34:49.947Z,17.80
2019-06-20T02:37:19.242Z,17.80
2019-06-20T02:39:48.038Z,17.70
2019-06-20T02:42:16.963Z,17.70
2019-06-20T02:44:46.266Z,17.70
2019-06-20T02:47:15.053Z,17.60
2019-06-20T02:49:43.878Z,17.60
2019-06-20T02:52:13.012Z,17.70
2019-06-20T02:54:42.091Z,17.70
2019-06-20T02:57:11.142Z,17.70
2019-06-20T02:59:40.104Z,17.70
2019-06-20T03:02:09.170Z,17.70
2019-06-20T03:04:37.982Z,17.70
2019-06-20T03:07:07.133Z,17.70
2019-06-20T03:09:35.953Z,17.60
2019-06-20T03:12:05.293Z,17.60
2019-06-20T03:14:44.902Z,17.60
2019-06-20T03:17:05.544Z,17.60
2019-06-20T03:19:34.356Z,17.60
2019-06-20T03:22:03.192Z,17.60
2019-06-20T03:24:32.330Z,17.60
2019-06-20T03:27:01.439Z,17.60
2019-06-20T03:29:30.330Z,17.60
2019-06-20T03:31:59.212Z,17.50
2019-06-20T03:34:28.420Z,17.60
2019-06-20T03:36:57.212Z,17.60
2019-06-20T03:39:26.029Z,17.60
2019-06-20T03:41:54.890Z,17.50
2019-06-20T03:44:23.707Z,17.50
2019-06-20T03:46:52.507Z,17.50
2019-06-20T03:49:21.558Z,17.50
2019-06-20T03:51:51.712Z,17.40
2019-06-20T03:54:20.848Z,17.40
2019-06-20T03:56:49.923Z,17.40
2019-06-20T03:59:18.833Z,17.30
2019-06-20T04:01:49.241Z,17.30
2019-06-20T04:04:18.119Z,17.20
2019-06-20T04:06:46.981Z,17.20
2019-06-20T04:09:15.775Z,17.20
2019-06-20T04:11:44.609Z,17.10
2019-06-20T04:14:13.496Z,17.10
2019-06-20T04:16:42.288Z,17.20
2019-06-20T04:19:11.090Z,17.20
2019-06-20T04:21:40.313Z,17.10
2019-06-20T04:24:09.126Z,17.10
2019-06-20T04:26:37.903Z,17.10
2019-06-20T04:29:06.701Z,17.10
2019-06-20T04:31:35.800Z,17.10
2019-06-20T04:34:04.584Z,17.20
2019-06-20T04:36:33.494Z,17.20
2019-06-20T04:39:18.137Z,17.20
2019-06-20T04:41:33.432Z,17.20
2019-06-20T04:44:02.317Z,17.20
2019-06-20T04:46:37.199Z,17.20
2019-06-20T04:49:06.020Z,17.20
2019-06-20T04:51:34.885Z,17.10
2019-06-20T04:54:03.777Z,17.20
2019-06-20T04:56:32.928Z,17.20
2019-06-20T04:59:02.053Z,17.20
2019-06-20T05:01:30.861Z,17.30
2019-06-20T05:03:59.912Z,17.20
2019-06-20T05:06:28.861Z,17.20
2019-06-20T05:08:57.650Z,17.20
2019-06-20T05:11:26.475Z,17.20
2019-06-20T05:13:55.250Z,17.20
2019-06-20T05:16:24.044Z,17.30
2019-06-20T05:18:52.854Z,17.30
2019-06-20T05:21:22.544Z,17.40
2019-06-20T05:23:51.603Z,17.40
2019-06-20T05:26:20.425Z,17.50
2019-06-20T05:28:49.326Z,17.60
2019-06-20T05:31:18.406Z,17.60
2019-06-20T05:33:47.194Z,17.70
2019-06-20T05:36:16.228Z,17.80
2019-06-20T05:38:45.294Z,17.80
2019-06-20T05:41:14.420Z,17.90
2019-06-20T05:43:43.517Z,17.90
2019-06-20T05:46:12.421Z,17.90
2019-06-20T05:48:41.461Z,18.10
2019-06-20T05:51:10.307Z,18.20
2019-06-20T05:53:39.174Z,18.40
2019-06-20T05:56:08.737Z,18.60
2019-06-20T05:58:37.784Z,18.80
2019-06-20T06:01:06.784Z,18.90
2019-06-20T06:03:36.105Z,19.10
2019-06-20T06:06:04.985Z,19.20
2019-06-20T06:08:34.107Z,19.40
2019-06-20T06:11:03.032Z,19.60
2019-06-20T06:13:31.828Z,19.80
2019-06-20T06:16:01.105Z,20.00
2019-06-20T06:18:29.920Z,20.10
2019-06-20T06:20:58.965Z,20.20
2019-06-20T06:23:27.789Z,20.10
2019-06-20T06:25:58.643Z,20.10
2019-06-20T06:28:27.451Z,20.10
2019-06-20T06:30:56.698Z,20.10
2019-06-20T06:33:25.590Z,20.10
2019-06-20T06:35:54.568Z,19.90
2019-06-20T06:38:23.430Z,19.70
2019-06-20T06:40:52.886Z,19.50
2019-06-20T06:43:21.756Z,19.40
2019-06-20T06:45:50.827Z,19.20
2019-06-20T06:48:19.754Z,19.00
2019-06-20T06:50:48.708Z,19.00
2019-06-20T06:53:17.565Z,19.00
2019-06-20T06:55:46.382Z,19.10
2019-06-20T06:58:15.159Z,19.20
2019-06-20T07:00:44.048Z,19.50
2019-06-20T07:03:12.847Z,20.00
2019-06-20T07:05:41.816Z,20.80
2019-06-20T07:08:10.726Z,21.50
2019-06-20T07:10:39.698Z,22.10
2019-06-20T07:13:08.793Z,22.60
2019-06-20T07:15:38.005Z,23.20
2019-06-20T07:18:06.908Z,23.80
2019-06-20T07:20:35.817Z,24.20
2019-06-20T07:23:04.692Z,24.40
2019-06-20T07:25:33.754Z,24.70
2019-06-20T07:28:02.798Z,24.80
2019-06-20T07:30:31.936Z,24.70
2019-06-20T07:33:00.829Z,24.70
2019-06-20T07:35:30.056Z,24.70
2019-06-20T07:37:59.206Z,24.70
2019-06-20T07:40:28.109Z,24.90
2019-06-20T07:42:56.904Z,24.60
2019-06-20T07:45:27.458Z,24.20
2019-06-20T07:47:56.665Z,23.80
2019-06-20T07:50:25.610Z,23.40
2019-06-20T07:53:02.096Z,23.40
2019-06-20T07:55:25.102Z,23.80
2019-06-20T07:57:53.965Z,24.30
2019-06-20T08:00:23.398Z,24.80
2019-06-20T08:02:52.419Z,25.10
2019-06-20T08:05:21.645Z,25.40
2019-06-20T08:07:50.813Z,25.70
2019-06-20T08:10:20.380Z,25.90
2019-06-20T08:12:49.306Z,25.90
2019-06-20T08:15:19.143Z,26.30
2019-06-20T08:17:48.104Z,26.20
2019-06-20T08:20:18.857Z,25.90
2019-06-20T08:22:47.838Z,25.40
2019-06-20T08:25:17.384Z,25.00
2019-06-20T08:27:50.127Z,24.90
2019-06-20T08:30:20.887Z,25.00
2019-06-20T08:32:50.100Z,25.00
2019-06-20T08:35:22.404Z,24.80
2019-06-20T08:37:51.835Z,24.90
2019-06-20T08:40:21.138Z,25.10
2019-06-20T08:42:50.084Z,25.30
2019-06-20T08:45:19.658Z,25.40
2019-06-20T08:47:48.625Z,25.50
2019-06-20T08:50:17.682Z,25.30
2019-06-20T08:52:46.574Z,25.20
2019-06-20T08:55:17.516Z,25.30
2019-06-20T08:57:46.631Z,25.10
2019-06-20T09:00:16.091Z,24.90
2019-06-20T09:02:45.563Z,24.70
2019-06-20T09:05:15.382Z,24.70
2019-06-20T09:07:44.469Z,24.90
2019-06-20T09:10:14.346Z,25.30
2019-06-20T09:12:43.166Z,25.70
2019-06-20T09:15:12.596Z,26.20
2019-06-20T09:17:41.821Z,26.70
2019-06-20T09:20:12.450Z,27.10
2019-06-20T09:22:41.340Z,27.00
2019-06-20T09:25:10.982Z,26.90
2019-06-20T09:27:40.119Z,27.10
2019-06-20T09:30:09.960Z,27.40
2019-06-20T09:32:39.147Z,27.70
2019-06-20T09:35:08.638Z,27.90
2019-06-20T09:37:37.575Z,27.90
2019-06-20T09:40:07.878Z,28.20
2019-06-20T09:42:36.995Z,28.30
2019-06-20T09:45:06.434Z,28.50
2019-06-20T09:47:35.254Z,28.50
2019-06-20T09:50:05.952Z,28.50
2019-06-20T09:52:35.161Z,28.50
2019-06-20T09:55:04.389Z,28.40
2019-06-20T09:57:33.510Z,28.30
2019-06-20T10:00:10.049Z,28.30
2019-06-20T10:02:34.157Z,28.30
2019-06-20T10:05:03.070Z,28.50
2019-06-20T10:07:32.205Z,28.40
2019-06-20T10:10:01.270Z,28.10
2019-06-20T10:12:30.162Z,27.80
2019-06-20T10:14:58.953Z,27.40
2019-06-20T10:17:27.808Z,27.10
2019-06-20T10:19:56.751Z,27.00
2019-06-20T10:22:25.552Z,27.10
2019-06-20T10:24:54.351Z,27.10
2019-06-20T10:27:23.667Z,27.20
2019-06-20T10:29:53.505Z,27.20
2019-06-20T10:32:22.462Z,27.10
2019-06-20T10:34:52.642Z,27.10
2019-06-20T10:37:21.680Z,27.50
2019-06-20T10:39:50.482Z,28.10
2019-06-20T10:42:19.269Z,28.60
2019-06-20T10:44:48.048Z,29.00
2019-06-20T10:47:28.948Z,29.30
2019-06-20T10:49:47.998Z,29.50
2019-06-20T10:52:17.452Z,29.30
2019-06-20T10:54:47.050Z,29.10
2019-06-20T10:57:16.290Z,28.70
2019-06-20T10:59:46.472Z,28.50
2019-06-20T11:02:15.727Z,28.40
2019-06-20T11:04:45.681Z,28.60
2019-06-20T11:07:14.914Z,28.60
2019-06-20T11:09:45.225Z,28.70
2019-06-20T11:12:14.322Z,28.90
2019-06-20T11:14:44.143Z,28.90
2019-06-20T11:17:13.189Z,29.10
2019-06-20T11:19:42.172Z,29.10
2019-06-20T11:22:11.378Z,28.70
2019-06-20T11:24:40.905Z,28.40
2019-06-20T11:27:11.418Z,28.40
2019-06-20T11:29:41.584Z,28.40
2019-06-20T11:32:10.556Z,28.20
2019-06-20T11:34:39.599Z,28.10
2019-06-20T11:37:08.781Z,28.20
2019-06-20T11:39:38.844Z,28.10
2019-06-20T11:42:08.317Z,28.00
2019-06-20T11:44:37.120Z,28.20
2019-06-20T11:47:06.212Z,28.20
2019-06-20T11:49:36.356Z,28.20
2019-06-20T11:52:05.654Z,28.10
2019-06-20T11:54:34.546Z,27.80
2019-06-20T11:57:03.450Z,27.70
2019-06-20T11:59:32.391Z,27.50
2019-06-20T12:02:01.479Z,27.30
2019-06-20T12:04:30.285Z,26.90
2019-06-20T12:06:59.159Z,26.60
2019-06-20T12:09:28.259Z,26.30
2019-06-20T12:11:57.042Z,26.20
2019-06-20T12:14:25.845Z,25.90
2019-06-20T12:16:54.649Z,25.80
2019-06-20T12:19:23.461Z,25.70
2019-06-20T12:21:52.397Z,25.60
2019-06-20T12:24:21.662Z,25.50
2019-06-20T12:26:50.476Z,25.20
2019-06-20T12:29:19.409Z,25.00
2019-06-20T12:31:48.510Z,24.80
2019-06-20T12:34:17.346Z,24.60
2019-06-20T12:36:46.616Z,24.30
2019-06-20T12:39:15.844Z,24.20
2019-06-20T12:41:45.604Z,24.20
2019-06-20T12:44:14.546Z,24.20
2019-06-20T12:46:44.777Z,24.20
2019-06-20T12:49:13.685Z,24.20
2019-06-20T12:51:42.458Z,24.10
2019-06-20T12:54:11.320Z,24.10
2019-06-20T12:56:41.622Z,24.10
2019-06-20T12:59:10.814Z,24.10
2019-06-20T13:01:44.163Z,24.00
2019-06-20T13:04:10.561Z,23.90
2019-06-20T13:06:40.500Z,23.70
2019-06-20T13:09:09.431Z,23.60
2019-06-20T13:11:39.419Z,23.50
2019-06-20T13:14:08.748Z,23.40
2019-06-20T13:16:38.859Z,23.40
2019-06-20T13:19:08.094Z,23.40
2019-06-20T13:21:38.715Z,23.40
2019-06-20T13:24:07.754Z,23.50
2019-06-20T13:26:36.785Z,23.50
2019-06-20T13:29:06.037Z,23.60
2019-06-20T13:31:49.939Z,23.70
2019-06-20T13:34:05.738Z,23.80
2019-06-20T13:36:34.630Z,24.10
2019-06-20T13:39:05.563Z,24.30
2019-06-20T13:41:34.625Z,24.70
2019-06-20T13:44:03.549Z,25.10
2019-06-20T13:46:32.432Z,25.50
2019-06-20T13:49:01.259Z,26.30
2019-06-20T13:51:30.114Z,27.00
2019-06-20T13:53:58.926Z,27.90
2019-06-20T13:56:27.796Z,28.40
2019-06-20T13:58:57.735Z,28.80
2019-06-20T14:01:26.977Z,28.90
2019-06-20T14:03:55.868Z,29.10
2019-06-20T14:06:24.660Z,29.30
2019-06-20T14:08:54.591Z,29.50
2019-06-20T14:11:23.491Z,29.20
2019-06-20T14:13:53.154Z,29.50
2019-06-20T14:16:22.285Z,30.10
2019-06-20T14:18:51.156Z,30.70
2019-06-20T14:21:20.021Z,31.40
2019-06-20T14:23:49.159Z,31.20
2019-06-20T14:26:18.120Z,30.90
2019-06-20T14:28:48.230Z,31.30
2019-06-20T14:31:17.228Z,32.10
2019-06-20T14:33:46.165Z,32.70
2019-06-20T14:36:15.433Z,33.10
2019-06-20T14:38:45.640Z,33.30
2019-06-20T14:41:15.010Z,33.60
2019-06-20T14:43:44.694Z,33.90
2019-06-20T14:46:14.423Z,34.30
2019-06-20T14:48:43.545Z,34.70
2019-06-20T14:51:13.650Z,34.60
2019-06-20T14:53:43.911Z,33.90
2019-06-20T14:56:13.242Z,33.20
2019-06-20T14:58:44.760Z,32.50
2019-06-20T15:01:13.012Z,31.40
2019-06-20T15:03:41.927Z,30.20
2019-06-20T15:06:10.801Z,29.60
2019-06-20T15:08:39.645Z,29.30
2019-06-20T15:11:11.795Z,29.40
2019-06-20T15:13:39.304Z,30.40
2019-06-20T15:16:08.690Z,31.30
2019-06-20T15:18:37.994Z,31.30
2019-06-20T15:21:06.885Z,30.80
2019-06-20T15:23:35.774Z,30.80
2019-06-20T15:26:04.778Z,31.30
2019-06-20T15:28:33.760Z,32.60
2019-06-20T15:31:02.655Z,33.50
2019-06-20T15:33:31.605Z,34.00
2019-06-20T15:36:00.532Z,34.70
2019-06-20T15:38:29.446Z,35.50
2019-06-20T15:40:58.316Z,36.10
2019-06-20T15:43:27.199Z,36.40
2019-06-20T15:45:56.300Z,36.40
2019-06-20T15:48:25.690Z,35.70
2019-06-20T15:50:54.721Z,34.90
2019-06-20T15:53:23.728Z,34.20
2019-06-20T15:55:52.666Z,33.10
2019-06-20T15:58:21.602Z,32.40
2019-06-20T16:00:50.590Z,32.60
2019-06-20T16:03:19.374Z,33.40
2019-06-20T16:05:48.593Z,33.70
2019-06-20T16:08:17.515Z,33.80
2019-06-20T16:10:46.485Z,34.10
2019-06-20T16:13:15.678Z,34.80
2019-06-20T16:15:45.015Z,35.60
2019-06-20T16:18:14.261Z,36.50
2019-06-20T16:20:44.210Z,37.20
2019-06-20T16:23:13.350Z,37.80
2019-06-20T16:25:42.648Z,37.90
2019-06-20T16:28:11.825Z,37.80
2019-06-20T16:30:41.349Z,37.70
2019-06-20T16:33:24.044Z,37.30
2019-06-20T16:35:41.379Z,36.50
2019-06-20T16:38:10.736Z,35.30
2019-06-20T16:40:47.511Z,34.10
2019-06-20T16:43:16.715Z,33.20
2019-06-20T16:45:45.646Z,32.00
2019-06-20T16:48:14.772Z,31.20
2019-06-20T16:50:44.286Z,30.60
2019-06-20T16:53:13.863Z,30.20
2019-06-20T16:55:42.931Z,29.60
2019-06-20T16:58:12.971Z,29.00
2019-06-20T17:00:42.386Z,28.30
2019-06-20T17:03:11.869Z,27.60
2019-06-20T17:05:43.640Z,27.20
2019-06-20T17:08:12.651Z,26.60
2019-06-20T17:10:45.179Z,26.30
2019-06-20T17:13:15.015Z,25.90
2019-06-20T17:15:43.940Z,25.50
2019-06-20T17:18:12.916Z,25.20
2019-06-20T17:20:42.176Z,24.90
2019-06-20T17:23:11.073Z,24.70
2019-06-20T17:25:40.020Z,24.50
2019-06-20T17:28:09.217Z,24.30
2019-06-20T17:30:38.209Z,24.10
2019-06-20T17:33:07.271Z,23.80
2019-06-20T17:35:36.469Z,23.60
2019-06-20T17:38:05.837Z,23.50
2019-06-20T17:40:35.206Z,23.40
2019-06-20T17:43:04.178Z,23.30
2019-06-20T17:45:33.303Z,23.10
2019-06-20T17:48:02.197Z,23.10
2019-06-20T17:50:31.282Z,23.00
2019-06-20T17:53:00.222Z,22.80
2019-06-20T17:55:29.125Z,22.70
2019-06-20T17:57:58.004Z,22.60
2019-06-20T18:00:27.402Z,22.40
2019-06-20T18:02:57.086Z,22.30
2019-06-20T18:05:26.547Z,22.10
2019-06-20T18:07:55.402Z,22.00
2019-06-20T18:10:24.633Z,21.90
2019-06-20T18:12:53.520Z,21.70
2019-06-20T18:15:29.545Z,21.60
2019-06-20T18:17:58.688Z,21.40
2019-06-20T18:20:33.248Z,21.30
2019-06-20T18:23:04.454Z,21.20
2019-06-20T18:25:33.262Z,21.10
2019-06-20T18:28:02.139Z,21.00
2019-06-20T18:30:40.576Z,21.00
2019-06-20T18:33:09.604Z,20.90
2019-06-20T18:35:38.506Z,20.80
2019-06-20T18:38:07.494Z,20.70
2019-06-20T18:40:36.758Z,20.70
2019-06-20T18:43:05.745Z,20.60
2019-06-20T18:45:34.610Z,20.50
2019-06-20T18:48:03.605Z,20.30
2019-06-20T18:50:32.862Z,20.30
2019-06-20T18:53:01.774Z,20.20
2019-06-20T18:55:30.961Z,20.10
2019-06-20T18:58:00.065Z,20.00
2019-06-20T19:00:34.770Z,19.90
2019-06-20T19:02:59.780Z,19.80
2019-06-20T19:05:28.965Z,19.70
2019-06-20T19:07:57.993Z,19.60
2019-06-20T19:10:27.289Z,19.50
2019-06-20T19:12:56.389Z,19.40
2019-06-20T19:15:25.620Z,19.40
2019-06-20T19:17:54.560Z,19.30
2019-06-20T19:20:23.666Z,19.20
2019-06-20T19:22:52.479Z,19.20
2019-06-20T19:25:21.700Z,19.10
2019-06-20T19:27:50.490Z,19.10
2019-06-20T19:30:21.371Z,19.00
2019-06-20T19:32:50.441Z,18.90
2019-06-20T19:35:19.450Z,18.90
2019-06-20T19:37:48.514Z,18.90
2019-06-20T19:40:17.992Z,18.90
2019-06-20T19:42:46.825Z,18.90
2019-06-20T19:45:16.616Z,18.80
2019-06-20T19:47:45.485Z,18.90
2019-06-20T19:50:14.725Z,18.80
2019-06-20T19:52:43.783Z,18.80
2019-06-20T19:55:13.294Z,18.80
2019-06-20T19:57:42.231Z,18.80
2019-06-20T20:00:12.285Z,18.70
2019-06-20T20:02:41.266Z,18.60
2019-06-20T20:05:19.651Z,18.60
2019-06-20T20:07:45.616Z,18.60
2019-06-20T20:10:14.963Z,18.60
2019-06-20T20:12:43.956Z,18.60
2019-06-20T20:15:13.986Z,18.50
2019-06-20T20:17:42.862Z,18.50
2019-06-20T20:20:13.730Z,18.50
2019-06-20T20:22:42.813Z,18.40
2019-06-20T20:25:12.185Z,18.40
2019-06-20T20:27:41.633Z,18.40
2019-06-20T20:30:12.108Z,18.30
2019-06-20T20:32:41.017Z,18.20
2019-06-20T20:35:10.600Z,18.20
2019-06-20T20:37:39.767Z,18.10
2019-06-20T20:40:09.550Z,18.00
2019-06-20T20:42:38.497Z,17.90
2019-06-20T20:45:08.425Z,17.80
2019-06-20T20:47:37.465Z,17.70
2019-06-20T20:50:06.651Z,17.60
2019-06-20T20:52:35.781Z,17.70
2019-06-20T20:55:04.758Z,17.70
2019-06-20T20:57:33.750Z,17.70
2019-06-20T21:00:02.660Z,17.80
2019-06-20T21:02:31.714Z,17.80
2019-06-20T21:05:00.625Z,17.90
2019-06-20T21:07:29.730Z,17.90
2019-06-20T21:09:58.905Z,17.80
2019-06-20T21:12:27.795Z,17.70
2019-06-20T21:14:56.785Z,17.70
2019-06-20T21:17:25.794Z,17.60
2019-06-20T21:19:54.655Z,17.50
2019-06-20T21:22:23.590Z,17.50
2019-06-20T21:24:52.520Z,17.50
2019-06-20T21:27:21.523Z,17.50
2019-06-20T21:29:50.402Z,17.60
2019-06-20T21:32:19.225Z,17.60
2019-06-20T21:34:48.085Z,17.70
2019-06-20T21:37:16.882Z,17.70
2019-06-20T21:39:46.307Z,17.70
2019-06-20T21:42:15.106Z,17.70
2019-06-20T21:44:43.929Z,17.70
2019-06-20T21:47:12.988Z,17.70
2019-06-20T21:49:41.928Z,17.60
2019-06-20T21:52:10.809Z,17.50
2019-06-20T21:54:40.042Z,17.50
2019-06-20T21:57:09.305Z,17.40
2019-06-20T21:59:38.122Z,17.30
2019-06-20T22:02:07.707Z,17.30
2019-06-20T22:04:36.572Z,17.30
2019-06-20T22:07:06.042Z,17.20
2019-06-20T22:09:34.852Z,17.10
2019-06-20T22:12:03.700Z,17.00
2019-06-20T22:14:32.622Z,17.00
2019-06-20T22:17:01.515Z,16.90
2019-06-20T22:19:30.381Z,16.90
2019-06-20T22:21:59.173Z,16.80
2019-06-20T22:24:27.960Z,16.80
2019-06-20T22:26:56.802Z,16.90
2019-06-20T22:29:25.734Z,16.90
2019-06-20T22:31:54.531Z,16.90
2019-06-20T22:34:23.622Z,16.90
2019-06-20T22:36:52.465Z,17.00
2019-06-20T22:39:21.338Z,17.10
2019-06-20T22:41:50.259Z,17.10
2019-06-20T22:44:19.360Z,17.20
2019-06-20T22:46:48.554Z,17.20
2019-06-20T22:49:17.346Z,17.30
2019-06-20T22:51:46.145Z,17.30
2019-06-20T22:54:15.000Z,17.30
2019-06-20T22:56:43.891Z,17.30
2019-06-20T22:59:12.737Z,17.40
2019-06-20T23:01:41.605Z,17.30
2019-06-20T23:04:10.395Z,17.30
2019-06-20T23:06:55.105Z,17.30
2019-06-20T23:09:09.940Z,17.20
2019-06-20T23:11:39.356Z,17.20
2019-06-20T23:14:08.473Z,17.30
2019-06-20T23:16:37.546Z,17.30
2019-06-20T23:19:06.649Z,17.30
2019-06-20T23:21:35.506Z,17.30
2019-06-20T23:24:04.430Z,17.20
2019-06-20T23:26:33.402Z,17.20
2019-06-20T23:29:20.879Z,17.20
2019-06-20T23:31:49.663Z,17.20
2019-06-20T23:34:18.489Z,17.10
2019-06-20T23:36:47.366Z,17.20
2019-06-20T23:39:16.389Z,17.20
2019-06-20T23:41:45.352Z,17.20
2019-06-20T23:44:14.278Z,17.20
2019-06-20T23:46:43.098Z,17.20
2019-06-20T23:49:12.002Z,17.20
2019-06-20T23:51:46.633Z,17.20
2019-06-20T23:54:15.658Z,17.10
2019-06-20T23:56:44.534Z,17.10
2019-06-20T23:59:13.329Z,17.00
